createdAt,value
2019-01-13T00:00:00.221Z,70.38
2019-01-13T00:02:31.695Z,70.41
2019-01-13T00:05:03.003Z,70.67
2019-01-13T00:07:35.183Z,70.48
2019-01-13T00:10:07.011Z,70.31
2019-01-13T00:12:37.975Z,70.08
2019-01-13T00:15:09.465Z,69.98
2019-01-13T00:17:40.835Z,69.71
2019-01-13T00:20:12.330Z,70.06
2019-01-13T00:22:43.886Z,70.21
2019-01-13T00:25:15.242Z,70.65
2019-01-13T00:27:46.516Z,71.38
2019-01-13T00:30:19.278Z,71.13
2019-01-13T00:32:51.763Z,70.86
2019-01-13T00:35:22.809Z,70.74
2019-01-13T00:37:54.027Z,71.16
2019-01-13T00:40:25.511Z,70.98
2019-01-13T00:42:57.012Z,70.57
2019-01-13T00:45:28.272Z,70.94
2019-01-13T00:47:59.375Z,70.98
2019-01-13T00:50:30.427Z,71.07
2019-01-13T00:53:01.561Z,70.77
2019-01-13T00:55:32.818Z,70.81
2019-01-13T00:58:03.931Z,70.45
2019-01-13T01:00:35.340Z,70.07
2019-01-13T01:03:06.898Z,70.78
2019-01-13T01:05:37.879Z,70.96
2019-01-13T01:08:10.031Z,70.56
2019-01-13T01:10:41.447Z,70.77
2019-01-13T01:13:12.409Z,70.81
2019-01-13T01:15:43.385Z,70.82
2019-01-13T01:18:15.055Z,71.29
2019-01-13T01:20:46.178Z,70.69
2019-01-13T01:23:17.139Z,70.77
2019-01-13T01:25:48.114Z,71.12
2019-01-13T01:28:19.151Z,70.80
2019-01-13T01:30:50.220Z,70.76
2019-01-13T01:33:25.848Z,71.46
2019-01-13T01:35:54.569Z,71.81
2019-01-13T01:38:25.579Z,71.59
2019-01-13T01:40:56.574Z,71.64
2019-01-13T01:43:27.857Z,71.43
2019-01-13T01:45:59.176Z,71.75
2019-01-13T01:48:30.457Z,71.66
2019-01-13T01:51:01.431Z,72.62
2019-01-13T01:53:32.504Z,73.27
2019-01-13T01:56:03.485Z,73.48
2019-01-13T01:58:34.682Z,73.90
2019-01-13T02:01:07.321Z,73.45
2019-01-13T02:03:38.876Z,73.14
2019-01-13T02:06:10.112Z,72.64
2019-01-13T02:08:41.207Z,72.85
2019-01-13T02:11:12.200Z,73.09
2019-01-13T02:13:43.177Z,73.47
2019-01-13T02:16:14.476Z,73.67
2019-01-13T02:18:46.137Z,73.86
2019-01-13T02:23:40.359Z,74.55
2019-01-13T02:26:11.605Z,74.11
2019-01-13T02:28:42.728Z,74.23
2019-01-13T02:31:14.503Z,74.89
2019-01-13T02:33:45.530Z,74.28
2019-01-13T02:36:17.871Z,74.46
2019-01-13T02:38:49.150Z,74.35
2019-01-13T02:41:20.388Z,73.67
2019-01-13T02:43:52.054Z,73.87
2019-01-13T02:46:23.107Z,73.71
2019-01-13T02:48:54.334Z,73.61
2019-01-13T02:51:25.798Z,74.01
2019-01-13T02:53:57.338Z,74.13
2019-01-13T02:56:28.324Z,73.95
2019-01-13T02:58:59.854Z,73.45
2019-01-13T03:01:31.473Z,73.51
2019-01-13T03:04:02.617Z,73.54
2019-01-13T03:06:33.949Z,73.18
2019-01-13T03:09:08.072Z,73.66
2019-01-13T03:11:39.209Z,73.65
2019-01-13T03:14:10.750Z,74.29
2019-01-13T03:16:42.332Z,74.54
2019-01-13T03:19:14.799Z,74.09
2019-01-13T03:21:46.142Z,73.87
2019-01-13T03:24:18.116Z,73.42
2019-01-13T03:26:49.103Z,73.20
2019-01-13T03:29:20.408Z,73.49
2019-01-13T03:31:51.999Z,73.20
2019-01-13T03:34:22.989Z,73.12
2019-01-13T03:36:53.973Z,73.33
2019-01-13T03:39:26.435Z,73.57
2019-01-13T03:41:57.501Z,73.39
2019-01-13T03:44:28.777Z,73.25
2019-01-13T03:47:00.271Z,72.84
2019-01-13T03:49:31.313Z,73.31
2019-01-13T03:52:02.623Z,73.01
2019-01-13T03:54:33.678Z,73.35
2019-01-13T03:57:04.834Z,73.77
2019-01-13T03:59:36.481Z,73.47
2019-01-13T04:02:07.541Z,73.50
2019-01-13T04:04:38.872Z,73.56
2019-01-13T04:07:09.854Z,73.57
2019-01-13T04:09:41.568Z,73.80
2019-01-13T04:12:12.951Z,74.61
2019-01-13T04:14:44.419Z,74.02
2019-01-13T04:17:16.108Z,73.50
2019-01-13T04:19:47.289Z,73.41
2019-01-13T04:22:18.617Z,74.00
2019-01-13T04:24:49.901Z,73.21
2019-01-13T04:27:21.225Z,72.81
2019-01-13T04:29:52.206Z,73.13
2019-01-13T04:32:23.189Z,73.71
2019-01-13T04:34:54.655Z,73.73
2019-01-13T04:37:26.401Z,73.86
2019-01-13T04:39:57.774Z,73.68
2019-01-13T04:42:28.763Z,74.25
2019-01-13T04:44:59.742Z,74.43
2019-01-13T04:47:31.284Z,73.79
2019-01-13T04:50:02.602Z,73.65
2019-01-13T04:52:34.540Z,73.78
2019-01-13T04:55:06.769Z,74.06
2019-01-13T04:57:38.939Z,73.42
2019-01-13T05:00:14.892Z,73.51
2019-01-13T05:02:46.728Z,73.23
2019-01-13T05:05:17.820Z,73.52
2019-01-13T05:07:48.873Z,73.28
2019-01-13T05:10:21.166Z,72.82
2019-01-13T05:12:52.210Z,72.93
2019-01-13T05:15:23.715Z,73.31
2019-01-13T05:17:55.022Z,73.18
2019-01-13T05:20:26.794Z,73.10
2019-01-13T05:22:58.251Z,72.80
2019-01-13T05:25:30.035Z,72.49
2019-01-13T05:28:01.426Z,72.85
2019-01-13T05:30:32.429Z,73.16
2019-01-13T05:33:03.670Z,73.88
2019-01-13T05:35:34.775Z,74.05
2019-01-13T05:38:06.134Z,74.27
2019-01-13T05:40:37.385Z,74.26
2019-01-13T05:43:08.459Z,73.77
2019-01-13T05:45:39.489Z,73.96
2019-01-13T05:48:10.842Z,73.85
2019-01-13T05:50:42.346Z,73.97
2019-01-13T05:53:13.517Z,74.23
2019-01-13T05:55:44.668Z,74.06
2019-01-13T05:58:16.301Z,73.99
2019-01-13T06:00:47.476Z,74.18
2019-01-13T06:03:20.748Z,74.20
2019-01-13T06:05:53.043Z,73.88
2019-01-13T06:08:24.098Z,74.23
2019-01-13T06:10:55.084Z,73.85
2019-01-13T06:13:27.375Z,73.71
2019-01-13T06:15:58.840Z,73.45
2019-01-13T06:18:30.376Z,73.36
2019-01-13T06:21:02.263Z,72.90
2019-01-13T06:23:33.608Z,72.80
2019-01-13T06:26:04.660Z,73.04
2019-01-13T06:28:35.699Z,73.04
2019-01-13T06:31:06.741Z,73.70
2019-01-13T06:33:37.721Z,73.48
2019-01-13T06:36:09.041Z,73.50
2019-01-13T06:38:40.036Z,73.38
2019-01-13T06:41:11.283Z,73.54
2019-01-13T06:43:42.563Z,73.43
2019-01-13T06:46:14.195Z,72.96
2019-01-13T06:48:45.741Z,72.82
2019-01-13T06:51:17.070Z,72.83
2019-01-13T06:53:48.837Z,73.34
2019-01-13T06:56:20.049Z,73.06
2019-01-13T06:58:51.044Z,73.68
2019-01-13T07:01:22.233Z,73.69
2019-01-13T07:03:53.945Z,73.26
2019-01-13T07:06:25.101Z,73.16
2019-01-13T07:08:57.445Z,73.25
2019-01-13T07:11:28.660Z,73.02
2019-01-13T07:13:59.940Z,72.90
2019-01-13T07:16:31.188Z,73.05
2019-01-13T07:19:02.851Z,72.73
2019-01-13T07:21:34.451Z,73.11
2019-01-13T07:24:06.260Z,72.94
2019-01-13T07:26:37.882Z,73.06
2019-01-13T07:29:09.117Z,73.07
2019-01-13T07:31:40.407Z,72.49
2019-01-13T07:34:11.636Z,72.68
2019-01-13T07:36:42.614Z,72.22
2019-01-13T07:39:14.248Z,72.35
2019-01-13T07:41:45.300Z,71.97
2019-01-13T07:44:17.554Z,71.58
2019-01-13T07:46:48.879Z,71.73
2019-01-13T07:49:19.861Z,71.73
2019-01-13T07:51:52.360Z,71.74
2019-01-13T07:54:23.451Z,71.64
2019-01-13T07:56:54.648Z,71.37
2019-01-13T07:59:27.203Z,71.02
2019-01-13T08:01:58.193Z,71.03
2019-01-13T08:04:29.807Z,70.99
2019-01-13T08:07:00.786Z,70.98
2019-01-13T08:09:32.084Z,71.18
2019-01-13T08:12:03.487Z,71.18
2019-01-13T08:14:34.919Z,71.51
2019-01-13T08:17:06.329Z,70.96
2019-01-13T08:19:37.321Z,71.23
2019-01-13T08:22:08.558Z,71.23
2019-01-13T08:24:39.680Z,71.03
2019-01-13T08:27:11.099Z,70.91
2019-01-13T08:29:42.345Z,71.07
2019-01-13T08:32:15.634Z,71.15
2019-01-13T08:34:47.805Z,71.58
2019-01-13T08:37:19.136Z,71.81
2019-01-13T08:39:50.127Z,71.47
2019-01-13T08:42:21.696Z,71.76
2019-01-13T08:44:52.692Z,71.83
2019-01-13T08:47:23.736Z,71.72
2019-01-13T08:49:54.805Z,71.26
2019-01-13T08:52:25.865Z,71.56
2019-01-13T08:54:57.678Z,71.90
2019-01-13T08:57:29.225Z,71.90
2019-01-13T09:00:00.295Z,71.60
2019-01-13T09:02:32.382Z,70.99
2019-01-13T09:05:05.270Z,71.71
2019-01-13T09:07:36.388Z,72.08
2019-01-13T09:10:09.666Z,72.13
2019-01-13T09:12:44.588Z,71.95
2019-01-13T09:15:24.724Z,72.36
2019-01-13T09:17:56.444Z,72.24
2019-01-13T09:20:32.560Z,72.71
2019-01-13T09:23:04.490Z,72.08
2019-01-13T09:25:37.802Z,72.34
2019-01-13T09:28:09.977Z,72.59
2019-01-13T09:30:41.332Z,72.89
2019-01-13T09:33:12.307Z,72.46
2019-01-13T09:35:43.358Z,72.44
2019-01-13T09:38:15.584Z,72.49
2019-01-13T09:40:47.312Z,72.30
2019-01-13T09:43:18.404Z,72.26
2019-01-13T09:45:49.977Z,72.36
2019-01-13T09:48:22.257Z,72.65
2019-01-13T09:50:53.559Z,72.86
2019-01-13T09:53:25.376Z,72.70
2019-01-13T09:55:56.368Z,72.71
2019-01-13T09:58:28.277Z,73.30
2019-01-13T10:00:59.975Z,72.62
2019-01-13T10:03:31.612Z,72.44
2019-01-13T10:06:02.844Z,72.68
2019-01-13T10:08:33.854Z,72.71
2019-01-13T10:11:06.185Z,72.50
2019-01-13T10:13:37.245Z,72.56
2019-01-13T10:16:08.286Z,72.86
2019-01-13T10:18:39.645Z,72.79
2019-01-13T10:21:10.812Z,73.05
2019-01-13T10:23:42.400Z,73.53
2019-01-13T10:26:13.776Z,73.83
2019-01-13T10:28:45.521Z,72.98
2019-01-13T10:31:16.954Z,72.87
2019-01-13T10:33:48.843Z,73.32
2019-01-13T10:36:20.236Z,72.83
2019-01-13T10:38:51.255Z,72.60
2019-01-13T10:41:22.760Z,73.18
2019-01-13T10:43:54.177Z,72.82
2019-01-13T10:46:25.221Z,72.42
2019-01-13T10:48:56.930Z,72.29
2019-01-13T10:51:28.308Z,72.48
2019-01-13T10:53:59.675Z,72.67
2019-01-13T10:56:30.953Z,72.88
2019-01-13T10:59:02.871Z,73.07
2019-01-13T11:01:34.523Z,72.83
2019-01-13T11:04:06.037Z,72.39
2019-01-13T11:06:37.771Z,72.84
2019-01-13T11:09:14.265Z,72.51
2019-01-13T11:11:45.572Z,73.31
2019-01-13T11:14:16.856Z,72.73
2019-01-13T11:16:47.932Z,72.24
2019-01-13T11:19:19.543Z,72.74
2019-01-13T11:21:51.020Z,72.87
2019-01-13T11:24:22.317Z,72.57
2019-01-13T11:26:53.521Z,72.84
2019-01-13T11:29:25.166Z,72.94
2019-01-13T11:31:56.529Z,73.23
2019-01-13T11:34:27.525Z,72.40
2019-01-13T11:36:59.040Z,72.45
2019-01-13T11:39:30.813Z,72.18
2019-01-13T11:42:02.406Z,72.51
2019-01-13T11:44:34.891Z,71.85
2019-01-13T11:47:06.075Z,71.91
2019-01-13T11:49:37.808Z,72.52
2019-01-13T11:52:09.214Z,71.97
2019-01-13T11:54:40.317Z,72.40
2019-01-13T11:57:11.803Z,72.36
2019-01-13T11:59:43.056Z,72.16
2019-01-13T12:02:14.161Z,72.58
2019-01-13T12:04:45.397Z,72.25
2019-01-13T12:07:16.835Z,72.66
2019-01-13T12:09:48.707Z,72.60
2019-01-13T12:12:20.329Z,73.20
2019-01-13T12:14:51.723Z,72.45
2019-01-13T12:17:24.003Z,72.48
2019-01-13T12:19:55.302Z,72.91
2019-01-13T12:22:26.313Z,73.27
2019-01-13T12:24:57.614Z,73.79
2019-01-13T12:27:29.266Z,73.90
2019-01-13T12:30:00.626Z,74.04
2019-01-13T12:32:31.845Z,73.98
2019-01-13T12:35:04.316Z,74.51
2019-01-13T12:37:35.379Z,74.75
2019-01-13T12:40:09.694Z,75.11
2019-01-13T12:42:40.743Z,75.39
2019-01-13T12:45:13.604Z,75.25
2019-01-13T12:47:44.852Z,74.80
2019-01-13T12:50:20.130Z,75.39
2019-01-13T12:52:51.058Z,75.56
2019-01-13T12:55:22.309Z,75.38
2019-01-13T12:57:54.399Z,75.77
2019-01-13T13:00:26.173Z,76.40
2019-01-13T13:02:57.771Z,77.12
2019-01-13T13:05:29.326Z,77.66
2019-01-13T13:08:00.745Z,78.05
2019-01-13T13:10:47.972Z,77.53
2019-01-13T13:13:18.990Z,77.93
2019-01-13T13:15:50.562Z,77.22
2019-01-13T13:18:21.988Z,77.29
2019-01-13T13:20:53.362Z,77.57
2019-01-13T13:23:24.614Z,77.41
2019-01-13T13:25:55.617Z,76.97
2019-01-13T13:28:26.657Z,76.96
2019-01-13T13:30:57.743Z,77.16
2019-01-13T13:33:29.053Z,77.71
2019-01-13T13:36:00.066Z,77.72
2019-01-13T13:38:31.388Z,77.42
2019-01-13T13:41:02.965Z,76.98
2019-01-13T13:43:32.974Z,76.77
2019-01-13T13:46:04.934Z,76.83
2019-01-13T13:48:36.212Z,76.91
2019-01-13T13:51:08.373Z,76.49
2019-01-13T13:53:39.601Z,76.68
2019-01-13T13:56:11.869Z,76.80
2019-01-13T13:58:42.906Z,76.95
2019-01-13T14:01:14.064Z,76.72
2019-01-13T14:03:46.179Z,76.35
2019-01-13T14:06:17.278Z,75.72
2019-01-13T14:08:48.505Z,75.68
2019-01-13T14:11:19.860Z,76.15
2019-01-13T14:13:50.877Z,75.75
2019-01-13T14:16:21.937Z,75.61
2019-01-13T14:18:53.325Z,75.91
2019-01-13T14:21:24.390Z,75.42
2019-01-13T14:23:56.072Z,75.27
2019-01-13T14:26:27.222Z,75.81
2019-01-13T14:28:58.855Z,75.21
2019-01-13T14:31:30.186Z,75.57
2019-01-13T14:34:01.548Z,75.94
2019-01-13T14:36:32.899Z,75.15
2019-01-13T14:39:06.255Z,74.89
2019-01-13T14:41:37.375Z,75.09
2019-01-13T14:44:09.110Z,75.59
2019-01-13T14:46:40.101Z,75.50
2019-01-13T14:49:11.387Z,75.56
2019-01-13T14:51:42.743Z,75.20
2019-01-13T14:54:14.035Z,75.55
2019-01-13T14:56:46.359Z,74.80
2019-01-13T14:59:17.419Z,74.98
2019-01-13T15:01:49.356Z,75.96
2019-01-13T15:04:20.700Z,76.46
2019-01-13T15:06:52.631Z,76.57
2019-01-13T15:09:24.729Z,76.72
2019-01-13T15:11:55.993Z,76.79
2019-01-13T15:14:27.073Z,76.68
2019-01-13T15:16:58.080Z,76.50
2019-01-13T15:19:29.118Z,75.93
2019-01-13T15:22:00.405Z,76.02
2019-01-13T15:24:31.785Z,75.81
2019-01-13T15:27:02.837Z,75.96
2019-01-13T15:29:34.045Z,75.37
2019-01-13T15:32:05.462Z,75.73
2019-01-13T15:34:36.800Z,75.63
2019-01-13T15:37:08.145Z,75.50
2019-01-13T15:39:39.890Z,75.58
2019-01-13T15:42:10.940Z,76.12
2019-01-13T15:44:42.312Z,76.73
2019-01-13T15:47:13.663Z,76.32
2019-01-13T15:49:44.979Z,76.53
2019-01-13T15:52:16.179Z,76.91
2019-01-13T15:54:47.980Z,76.95
2019-01-13T15:57:19.633Z,76.97
2019-01-13T15:59:50.719Z,76.95
2019-01-13T16:02:21.993Z,76.86
2019-01-13T16:04:53.374Z,76.81
2019-01-13T16:07:24.841Z,76.92
2019-01-13T16:09:55.955Z,76.78
2019-01-13T16:12:27.275Z,76.33
2019-01-13T16:15:00.289Z,76.53
2019-01-13T16:17:31.472Z,77.39
2019-01-13T16:20:02.811Z,77.30
2019-01-13T16:22:33.934Z,77.00
2019-01-13T16:25:05.862Z,77.36
2019-01-13T16:27:37.819Z,76.85
2019-01-13T16:30:14.339Z,76.59
2019-01-13T16:32:45.639Z,76.44
2019-01-13T16:35:16.955Z,76.96
2019-01-13T16:37:50.088Z,76.65
2019-01-13T16:40:23.619Z,76.23
2019-01-13T16:42:54.825Z,76.07
2019-01-13T16:45:25.936Z,76.48
2019-01-13T16:47:57.328Z,76.76
2019-01-13T16:50:28.938Z,76.81
2019-01-13T16:53:00.337Z,76.46
2019-01-13T16:55:31.414Z,76.28
2019-01-13T16:58:02.899Z,77.07
2019-01-13T17:00:33.979Z,76.53
2019-01-13T17:03:05.779Z,76.08
2019-01-13T17:05:37.203Z,76.57
2019-01-13T17:08:08.929Z,76.77
2019-01-13T17:10:40.179Z,76.59
2019-01-13T17:13:11.428Z,76.15
2019-01-13T17:15:42.448Z,75.83
2019-01-13T17:18:13.980Z,76.44
2019-01-13T17:20:45.584Z,76.49
2019-01-13T17:23:17.568Z,76.49
2019-01-13T17:25:49.952Z,77.06
2019-01-13T17:28:21.542Z,76.75
2019-01-13T17:30:53.429Z,76.72
2019-01-13T17:33:24.980Z,77.32
2019-01-13T17:35:56.296Z,77.27
2019-01-13T17:38:27.600Z,77.16
2019-01-13T17:40:58.964Z,76.46
2019-01-13T17:43:30.274Z,76.82
2019-01-13T17:46:01.468Z,76.62
2019-01-13T17:48:32.908Z,76.64
2019-01-13T17:51:03.968Z,76.59
2019-01-13T17:53:35.412Z,76.72
2019-01-13T17:56:07.398Z,76.53
2019-01-13T17:58:38.507Z,76.63
2019-01-13T18:01:35.745Z,76.90
2019-01-13T18:04:06.741Z,76.55
2019-01-13T18:06:38.345Z,76.62
2019-01-13T18:09:10.487Z,77.51
2019-01-13T18:11:41.512Z,77.08
2019-01-13T18:14:13.182Z,77.00
2019-01-13T18:16:44.469Z,76.42
2019-01-13T18:19:15.748Z,76.25
2019-01-13T18:21:47.029Z,76.47
2019-01-13T18:24:18.375Z,76.35
2019-01-13T18:26:49.811Z,76.87
2019-01-13T18:29:21.107Z,76.32
2019-01-13T18:31:52.758Z,76.46
2019-01-13T18:34:23.784Z,76.34
2019-01-13T18:36:55.467Z,76.89
2019-01-13T18:39:27.324Z,76.18
2019-01-13T18:41:58.558Z,77.30
2019-01-13T18:44:29.903Z,76.47
2019-01-13T18:47:01.308Z,77.13
2019-01-13T18:49:32.355Z,77.46
2019-01-13T18:52:03.653Z,77.71
2019-01-13T18:54:34.930Z,77.52
2019-01-13T18:57:06.069Z,77.73
2019-01-13T18:59:37.083Z,78.02
2019-01-13T19:02:08.214Z,77.61
2019-01-13T19:04:39.616Z,77.88
2019-01-13T19:07:11.040Z,77.58
2019-01-13T19:09:42.799Z,77.06
2019-01-13T19:12:14.330Z,77.21
2019-01-13T19:15:01.190Z,77.14
2019-01-13T19:17:32.490Z,76.42
2019-01-13T19:20:15.217Z,75.82
2019-01-13T19:22:49.704Z,76.22
2019-01-13T19:25:30.820Z,75.67
2019-01-13T19:28:01.868Z,76.55
2019-01-13T19:30:33.139Z,75.76
2019-01-13T19:33:04.444Z,76.14
2019-01-13T19:35:35.537Z,75.92
2019-01-13T19:38:07.093Z,75.60
2019-01-13T19:40:38.212Z,75.59
2019-01-13T19:43:09.595Z,76.20
2019-01-13T19:45:41.693Z,75.97
2019-01-13T19:48:13.146Z,75.48
2019-01-13T19:50:44.601Z,75.46
2019-01-13T19:53:15.855Z,75.15
2019-01-13T19:55:47.152Z,75.49
2019-01-13T19:58:18.434Z,75.38
2019-01-13T20:00:49.787Z,75.04
2019-01-13T20:03:22.080Z,74.24
2019-01-13T20:05:53.417Z,74.44
2019-01-13T20:08:25.310Z,74.71
2019-01-13T20:10:57.296Z,75.18
2019-01-13T20:13:28.623Z,75.22
2019-01-13T20:15:59.951Z,75.66
2019-01-13T20:18:30.965Z,76.11
2019-01-13T20:21:01.978Z,76.42
2019-01-13T20:23:33.429Z,76.95
2019-01-13T20:26:04.703Z,77.74
2019-01-13T20:28:36.049Z,77.32
2019-01-13T20:31:07.211Z,77.84
2019-01-13T20:33:38.974Z,77.63
2019-01-13T20:36:10.305Z,77.61
2019-01-13T20:38:41.659Z,77.80
2019-01-13T20:41:12.734Z,77.92
2019-01-13T20:43:43.717Z,77.49
2019-01-13T20:46:14.801Z,77.32
2019-01-13T20:48:45.887Z,77.72
2019-01-13T20:51:16.888Z,77.96
2019-01-13T20:53:47.902Z,77.24
2019-01-13T20:56:19.014Z,76.83
2019-01-13T20:58:50.294Z,76.44
2019-01-13T21:01:22.441Z,76.72
2019-01-13T21:03:53.773Z,76.84
2019-01-13T21:06:25.971Z,75.43
2019-01-13T21:08:57.185Z,75.92
2019-01-13T21:11:28.342Z,75.99
2019-01-13T21:13:59.813Z,76.67
2019-01-13T21:16:30.866Z,76.28
2019-01-13T21:19:02.563Z,75.99
2019-01-13T21:21:34.203Z,75.24
2019-01-13T21:24:05.796Z,75.58
2019-01-13T21:26:37.041Z,75.21
2019-01-13T21:29:08.592Z,74.42
2019-01-13T21:31:40.297Z,73.93
2019-01-13T21:34:11.625Z,74.62
2019-01-13T21:36:42.901Z,75.20
2019-01-13T21:39:13.871Z,74.67
2019-01-13T21:41:44.987Z,75.19
2019-01-13T21:44:16.308Z,75.19
2019-01-13T21:46:48.027Z,75.02
2019-01-13T21:49:19.239Z,74.82
2019-01-13T21:51:50.550Z,74.80
2019-01-13T21:54:22.673Z,75.09
2019-01-13T21:56:54.265Z,75.19
2019-01-13T21:59:25.832Z,74.46
2019-01-13T22:01:56.900Z,74.86
2019-01-13T22:04:28.175Z,75.54
2019-01-13T22:06:59.303Z,75.09
2019-01-13T22:09:30.528Z,74.59
2019-01-13T22:12:01.522Z,75.54
2019-01-13T22:14:32.750Z,74.82
2019-01-13T22:17:04.039Z,74.22
2019-01-13T22:19:35.790Z,75.02
2019-01-13T22:22:06.847Z,74.76
2019-01-13T22:24:38.842Z,74.03
2019-01-13T22:27:10.366Z,73.68
2019-01-13T22:29:41.392Z,74.26
2019-01-13T22:32:12.727Z,73.87
2019-01-13T22:34:44.084Z,73.95
2019-01-13T22:37:15.796Z,74.15
2019-01-13T22:39:47.112Z,73.57
2019-01-13T22:42:18.236Z,74.41
2019-01-13T22:44:49.533Z,74.92
2019-01-13T22:47:21.211Z,75.11
2019-01-13T22:49:53.209Z,75.17
2019-01-13T22:52:24.201Z,75.15
2019-01-13T22:54:55.182Z,74.59
2019-01-13T22:57:26.443Z,73.58
2019-01-13T22:59:57.413Z,74.33
2019-01-13T23:02:28.398Z,74.42
2019-01-13T23:05:00.868Z,74.79
2019-01-13T23:07:32.127Z,75.31
2019-01-13T23:10:03.183Z,74.98
2019-01-13T23:12:35.381Z,74.10
2019-01-13T23:15:06.781Z,74.12
2019-01-13T23:17:37.926Z,74.32
2019-01-13T23:20:09.926Z,75.02
2019-01-13T23:22:40.975Z,75.70
2019-01-13T23:25:12.265Z,76.22
2019-01-13T23:27:43.334Z,75.97
2019-01-13T23:30:14.775Z,75.65
2019-01-13T23:32:46.017Z,75.39
2019-01-13T23:35:17.134Z,75.16
2019-01-13T23:37:48.520Z,74.61
2019-01-13T23:40:19.578Z,75.41
2019-01-13T23:42:50.907Z,73.19
2019-01-13T23:45:22.283Z,72.51
2019-01-13T23:47:53.889Z,71.82
2019-01-13T23:50:25.742Z,71.40
2019-01-13T23:52:56.733Z,71.36
2019-01-13T23:55:27.763Z,70.81
2019-01-13T23:57:59.236Z,70.98
